createdAt,value
2022-09-18T00:00:52.860Z,60.40
2022-09-18T00:03:19.778Z,60.70
2022-09-18T00:05:48.159Z,60.50
2022-09-18T00:08:15.032Z,60.60
2022-09-18T00:10:42.319Z,60.60
2022-09-18T00:13:09.823Z,60.60
2022-09-18T00:15:37.674Z,60.50
2022-09-18T00:18:04.926Z,60.30
2022-09-18T00:20:34.379Z,60.30
2022-09-18T00:23:02.726Z,60.20
2022-09-18T00:25:29.775Z,60.00
2022-09-18T00:27:56.612Z,60.20
2022-09-18T00:30:23.467Z,59.90
2022-09-18T00:32:50.366Z,59.80
2022-09-18T00:35:17.361Z,59.70
2022-09-18T00:37:44.216Z,59.30
2022-09-18T00:40:12.719Z,59.20
2022-09-18T00:42:39.633Z,59.20
2022-09-18T00:45:16.763Z,59.10
2022-09-18T00:47:46.511Z,59.00
2022-09-18T00:50:16.795Z,59.00
2022-09-18T00:52:50.491Z,58.80
2022-09-18T00:55:23.116Z,58.80
2022-09-18T00:57:53.737Z,58.80
2022-09-18T01:00:21.400Z,58.60
2022-09-18T01:02:48.733Z,58.50
2022-09-18T01:05:19.011Z,58.30
2022-09-18T01:07:58.270Z,58.60
2022-09-18T01:10:41.586Z,58.40
2022-09-18T01:13:15.679Z,58.60
2022-09-18T01:15:50.155Z,58.70
2022-09-18T01:18:24.501Z,58.60
2022-09-18T01:21:09.204Z,58.60
2022-09-18T01:24:11.390Z,58.50
2022-09-18T01:26:51.307Z,58.50
2022-09-18T01:29:28.612Z,58.30
2022-09-18T01:32:01.087Z,58.50
2022-09-18T01:34:34.615Z,58.50
2022-09-18T01:37:06.577Z,58.40
2022-09-18T01:39:39.816Z,58.60
2022-09-18T01:42:08.974Z,58.80
2022-09-18T01:44:40.767Z,58.60
2022-09-18T01:47:12.502Z,58.70
2022-09-18T01:49:43.172Z,58.60
2022-09-18T01:52:14.857Z,58.80
2022-09-18T01:54:47.896Z,58.70
2022-09-18T01:57:19.715Z,58.80
2022-09-18T01:59:50.900Z,58.60
2022-09-18T02:02:22.798Z,58.70
2022-09-18T02:04:56.370Z,59.20
2022-09-18T02:07:30.476Z,59.00
2022-09-18T02:09:57.901Z,59.00
2022-09-18T02:12:26.957Z,58.90
2022-09-18T02:15:00.228Z,58.80
2022-09-18T02:17:32.473Z,58.70
2022-09-18T02:20:01.806Z,58.40
2022-09-18T02:22:34.128Z,58.60
2022-09-18T02:25:05.652Z,58.70
2022-09-18T02:27:34.010Z,58.60
2022-09-18T02:30:04.671Z,58.60
2022-09-18T02:32:31.924Z,58.60
2022-09-18T02:34:58.941Z,58.60
2022-09-18T02:37:38.068Z,58.80
2022-09-18T02:40:19.536Z,58.50
2022-09-18T02:42:55.693Z,58.70
2022-09-18T02:45:30.850Z,58.20
2022-09-18T02:48:19.340Z,58.30
2022-09-18T02:50:56.449Z,58.30
2022-09-18T02:53:29.358Z,58.30
2022-09-18T02:56:00.733Z,58.40
2022-09-18T02:58:33.364Z,58.10
2022-09-18T03:01:05.049Z,58.50
2022-09-18T03:03:33.795Z,58.10
2022-09-18T03:06:00.757Z,58.40
2022-09-18T03:08:27.639Z,58.60
2022-09-18T03:10:54.631Z,58.40
2022-09-18T03:13:21.627Z,58.20
2022-09-18T03:15:48.605Z,58.50
2022-09-18T03:18:16.891Z,58.50
2022-09-18T03:20:43.921Z,58.50
2022-09-18T03:23:11.051Z,58.50
2022-09-18T03:25:37.921Z,58.40
2022-09-18T03:28:05.123Z,58.00
2022-09-18T03:30:32.126Z,58.20
2022-09-18T03:32:58.935Z,58.10
2022-09-18T03:35:27.399Z,58.80
2022-09-18T03:37:54.405Z,58.10
2022-09-18T03:40:21.305Z,57.90
2022-09-18T03:42:49.069Z,57.90
2022-09-18T03:45:16.256Z,57.60
2022-09-18T03:47:43.121Z,57.50
2022-09-18T03:50:10.926Z,57.20
2022-09-18T03:52:39.865Z,57.40
2022-09-18T03:55:07.315Z,57.40
2022-09-18T03:57:34.264Z,57.40
2022-09-18T04:00:01.356Z,57.80
2022-09-18T04:02:28.239Z,57.60
2022-09-18T04:04:55.305Z,57.50
2022-09-18T04:07:22.114Z,57.80
2022-09-18T04:09:50.550Z,57.60
2022-09-18T04:12:18.513Z,57.30
2022-09-18T04:14:45.309Z,57.00
2022-09-18T04:17:12.224Z,56.90
2022-09-18T04:19:39.111Z,56.50
2022-09-18T04:22:05.959Z,56.40
2022-09-18T04:24:33.092Z,56.00
2022-09-18T04:27:01.482Z,56.50
2022-09-18T04:29:28.402Z,56.50
2022-09-18T04:31:55.350Z,56.40
2022-09-18T04:34:22.315Z,56.40
2022-09-18T04:36:49.343Z,56.60
2022-09-18T04:39:16.319Z,57.00
2022-09-18T04:41:43.229Z,57.00
2022-09-18T04:44:11.656Z,57.00
2022-09-18T04:46:38.725Z,57.20
2022-09-18T04:49:05.787Z,56.80
2022-09-18T04:51:32.976Z,56.80
2022-09-18T04:54:00.201Z,57.20
2022-09-18T04:56:27.148Z,57.10
2022-09-18T04:58:54.336Z,56.90
2022-09-18T05:01:22.687Z,56.60
2022-09-18T05:03:49.594Z,56.80
2022-09-18T05:06:16.547Z,56.80
2022-09-18T05:08:43.337Z,56.60
2022-09-18T05:11:10.211Z,56.40
2022-09-18T05:13:37.201Z,56.50
2022-09-18T05:16:04.352Z,56.60
2022-09-18T05:18:32.685Z,56.00
2022-09-18T05:21:01.580Z,56.00
2022-09-18T05:23:28.461Z,56.20
2022-09-18T05:25:55.208Z,56.40
2022-09-18T05:28:22.110Z,56.30
2022-09-18T05:30:49.072Z,56.60
2022-09-18T05:33:16.120Z,56.40
2022-09-18T05:35:44.514Z,56.00
2022-09-18T05:38:11.830Z,56.80
2022-09-18T05:40:39.171Z,56.20
2022-09-18T05:43:06.245Z,56.80
2022-09-18T05:45:34.289Z,56.50
2022-09-18T05:48:02.603Z,56.40
2022-09-18T05:50:30.391Z,56.40
2022-09-18T05:53:03.983Z,56.20
2022-09-18T05:55:32.192Z,55.80
2022-09-18T05:58:01.770Z,55.50
2022-09-18T06:00:31.208Z,55.30
2022-09-18T06:02:59.478Z,55.70
2022-09-18T06:05:27.956Z,56.10
2022-09-18T06:07:59.551Z,56.00
2022-09-18T06:10:29.121Z,56.20
2022-09-18T06:13:00.981Z,56.20
2022-09-18T06:15:27.701Z,56.40
2022-09-18T06:17:54.623Z,56.60
2022-09-18T06:20:21.685Z,57.00
2022-09-18T06:22:48.523Z,57.10
2022-09-18T06:25:15.591Z,56.90
2022-09-18T06:27:43.769Z,57.50
2022-09-18T06:30:11.865Z,57.40
2022-09-18T06:32:39.047Z,57.20
2022-09-18T06:35:07.280Z,57.40
2022-09-18T06:37:34.052Z,57.20
2022-09-18T06:40:01.028Z,57.00
2022-09-18T06:42:27.849Z,57.40
2022-09-18T06:44:55.974Z,57.40
2022-09-18T06:47:22.844Z,57.00
2022-09-18T06:49:49.560Z,57.10
2022-09-18T06:52:16.414Z,57.10
2022-09-18T06:54:43.186Z,57.30
2022-09-18T06:57:09.936Z,57.20
2022-09-18T06:59:36.767Z,57.20
2022-09-18T07:02:05.329Z,57.10
2022-09-18T07:04:32.250Z,57.10
2022-09-18T07:06:59.027Z,57.10
2022-09-18T07:09:25.915Z,57.10
2022-09-18T07:11:52.672Z,57.10
2022-09-18T07:14:19.420Z,56.90
2022-09-18T07:16:46.289Z,56.80
2022-09-18T07:19:23.668Z,56.80
2022-09-18T07:21:52.141Z,56.70
2022-09-18T07:24:18.907Z,56.60
2022-09-18T07:26:45.768Z,56.50
2022-09-18T07:29:12.619Z,56.40
2022-09-18T07:31:39.438Z,56.40
2022-09-18T07:34:06.236Z,56.40
2022-09-18T07:36:34.445Z,56.10
2022-09-18T07:39:01.279Z,56.50
2022-09-18T07:41:28.123Z,55.80
2022-09-18T07:43:54.863Z,55.40
2022-09-18T07:46:21.852Z,55.50
2022-09-18T07:48:48.768Z,55.30
2022-09-18T07:51:15.630Z,54.80
2022-09-18T07:53:43.818Z,54.60
2022-09-18T07:56:11.248Z,54.80
2022-09-18T07:58:38.558Z,54.80
2022-09-18T08:01:06.491Z,54.50
2022-09-18T08:03:35.083Z,54.60
2022-09-18T08:06:05.195Z,54.20
2022-09-18T08:08:32.132Z,53.90
2022-09-18T08:11:00.503Z,53.60
2022-09-18T08:13:27.366Z,53.50
2022-09-18T08:15:54.444Z,53.60
2022-09-18T08:18:21.641Z,53.20
2022-09-18T08:20:48.440Z,53.20
2022-09-18T08:23:15.202Z,53.60
2022-09-18T08:25:42.166Z,53.30
2022-09-18T08:28:10.763Z,53.60
2022-09-18T08:30:37.620Z,53.20
2022-09-18T08:33:06.373Z,53.20
2022-09-18T08:35:33.508Z,52.70
2022-09-18T08:38:01.225Z,52.70
2022-09-18T08:40:46.135Z,52.00
2022-09-18T08:43:20.696Z,52.10
2022-09-18T08:45:54.235Z,51.40
2022-09-18T08:48:25.259Z,51.30
2022-09-18T08:50:58.770Z,51.70
2022-09-18T08:53:30.814Z,51.60
2022-09-18T08:55:59.702Z,51.10
2022-09-18T08:58:33.718Z,51.00
2022-09-18T09:01:06.197Z,50.50
2022-09-18T09:03:45.057Z,50.70
2022-09-18T09:06:29.760Z,50.00
2022-09-18T09:09:16.875Z,50.60
2022-09-18T09:11:53.390Z,49.80
2022-09-18T09:14:57.780Z,50.50
2022-09-18T09:17:39.493Z,49.30
2022-09-18T09:20:22.300Z,49.80
2022-09-18T09:22:56.741Z,49.40
2022-09-18T09:25:30.476Z,49.60
2022-09-18T09:28:02.313Z,48.70
2022-09-18T09:30:33.660Z,49.60
2022-09-18T09:33:07.126Z,48.20
2022-09-18T09:35:38.615Z,48.60
2022-09-18T09:38:23.484Z,48.00
2022-09-18T09:40:52.035Z,48.10
2022-09-18T09:43:26.321Z,47.50
2022-09-18T09:45:57.443Z,47.50
2022-09-18T09:48:30.416Z,47.40
2022-09-18T09:51:05.054Z,45.80
2022-09-18T09:53:32.155Z,46.10
2022-09-18T09:56:07.181Z,46.20
2022-09-18T09:58:45.611Z,46.30
2022-09-18T10:01:21.537Z,46.30
2022-09-18T10:03:59.834Z,46.20
2022-09-18T10:06:38.941Z,46.90
2022-09-18T10:09:15.865Z,46.90
2022-09-18T10:11:48.797Z,45.70
2022-09-18T10:14:23.465Z,46.40
2022-09-18T10:16:54.174Z,45.60
2022-09-18T10:19:25.575Z,47.40
2022-09-18T10:21:54.690Z,46.70
2022-09-18T10:24:27.604Z,45.90
2022-09-18T10:26:58.044Z,46.30
2022-09-18T10:29:24.929Z,47.90
2022-09-18T10:31:54.989Z,47.50
2022-09-18T10:34:39.387Z,49.50
2022-09-18T10:37:12.619Z,49.20
2022-09-18T10:39:48.449Z,49.80
2022-09-18T10:42:17.921Z,48.40
2022-09-18T10:44:50.340Z,48.20
2022-09-18T10:47:24.021Z,49.00
2022-09-18T10:49:53.486Z,48.70
2022-09-18T10:52:44.970Z,48.40
2022-09-18T10:55:15.590Z,48.40
2022-09-18T10:57:44.350Z,48.70
2022-09-18T11:00:36.575Z,48.90
2022-09-18T11:03:23.808Z,49.00
2022-09-18T11:05:57.851Z,49.50
2022-09-18T11:08:28.284Z,49.20
2022-09-18T11:11:02.198Z,49.30
2022-09-18T11:13:30.298Z,49.30
2022-09-18T11:15:58.778Z,49.70
2022-09-18T11:18:28.032Z,49.90
2022-09-18T11:20:58.143Z,49.00
2022-09-18T11:23:27.342Z,48.30
2022-09-18T11:26:11.480Z,46.40
2022-09-18T11:28:39.131Z,48.30
2022-09-18T11:31:12.858Z,48.30
2022-09-18T11:33:46.816Z,48.30
2022-09-18T11:36:16.272Z,49.00
2022-09-18T11:38:45.797Z,48.50
2022-09-18T11:41:14.121Z,47.80
2022-09-18T11:43:43.152Z,47.20
2022-09-18T11:46:23.650Z,46.60
2022-09-18T11:49:02.501Z,46.00
2022-09-18T11:51:40.220Z,46.30
2022-09-18T11:54:18.949Z,47.30
2022-09-18T11:56:49.726Z,45.10
2022-09-18T11:59:24.962Z,45.30
2022-09-18T12:01:54.215Z,46.40
2022-09-18T12:04:32.482Z,46.30
2022-09-18T12:07:05.284Z,45.70
2022-09-18T12:09:38.878Z,46.30
2022-09-18T12:12:11.863Z,45.60
2022-09-18T12:14:43.044Z,45.60
2022-09-18T12:17:18.313Z,45.30
2022-09-18T12:19:53.285Z,46.20
2022-09-18T12:22:25.210Z,46.70
2022-09-18T12:24:52.087Z,46.40
2022-09-18T12:27:27.988Z,47.70
2022-09-18T12:30:07.437Z,47.60
2022-09-18T12:32:56.767Z,47.10
2022-09-18T12:35:34.265Z,46.70
2022-09-18T12:38:11.283Z,46.60
2022-09-18T12:40:56.825Z,46.10
2022-09-18T12:43:46.756Z,47.10
2022-09-18T12:46:35.070Z,46.50
2022-09-18T12:49:23.156Z,47.20
2022-09-18T12:52:01.753Z,47.00
2022-09-18T12:54:50.308Z,47.00
2022-09-18T12:57:41.342Z,47.90
2022-09-18T13:00:09.826Z,47.20
2022-09-18T13:02:51.133Z,47.00
2022-09-18T13:05:24.006Z,44.20
2022-09-18T13:07:56.861Z,44.80
2022-09-18T13:10:27.617Z,46.80
2022-09-18T13:12:59.827Z,47.40
2022-09-18T13:15:29.341Z,47.70
2022-09-18T13:18:08.728Z,48.10
2022-09-18T13:20:41.004Z,48.90
2022-09-18T13:23:17.560Z,48.50
2022-09-18T13:25:46.175Z,48.90
2022-09-18T13:28:16.248Z,48.90
2022-09-18T13:30:43.680Z,49.50
2022-09-18T13:33:23.180Z,49.50
2022-09-18T13:35:55.116Z,49.30
2022-09-18T13:38:25.851Z,49.40
2022-09-18T13:41:01.091Z,49.20
2022-09-18T13:43:43.086Z,49.30
2022-09-18T13:46:32.671Z,49.50
2022-09-18T13:49:02.177Z,49.50
2022-09-18T13:51:31.720Z,49.50
2022-09-18T13:54:35.811Z,49.30
2022-09-18T13:57:28.708Z,49.20
2022-09-18T13:59:56.475Z,49.20
2022-09-18T14:02:34.562Z,49.40
2022-09-18T14:05:04.741Z,49.20
2022-09-18T14:08:05.086Z,49.20
2022-09-18T14:11:14.944Z,49.10
2022-09-18T14:13:52.814Z,49.30
2022-09-18T14:16:31.865Z,49.10
2022-09-18T14:19:03.123Z,48.80
2022-09-18T14:21:31.451Z,48.90
2022-09-18T14:24:20.449Z,48.80
2022-09-18T14:27:17.827Z,48.80
2022-09-18T14:29:46.801Z,48.60
2022-09-18T14:32:18.221Z,48.60
2022-09-18T14:34:45.332Z,48.40
2022-09-18T14:37:23.413Z,48.30
2022-09-18T14:39:50.832Z,47.80
2022-09-18T14:42:32.606Z,48.20
2022-09-18T14:45:08.388Z,48.40
2022-09-18T14:47:35.412Z,48.40
2022-09-18T14:50:02.596Z,48.20
2022-09-18T14:52:31.575Z,48.00
2022-09-18T14:55:08.484Z,48.20
2022-09-18T14:57:44.292Z,47.90
2022-09-18T15:00:18.229Z,48.10
2022-09-18T15:02:49.519Z,48.20
2022-09-18T15:05:18.955Z,48.60
2022-09-18T15:07:49.881Z,48.70
2022-09-18T15:10:17.714Z,48.30
2022-09-18T15:12:46.351Z,48.20
2022-09-18T15:15:29.664Z,48.10
2022-09-18T15:17:57.098Z,48.40
2022-09-18T15:20:25.360Z,48.70
2022-09-18T15:22:52.223Z,48.30
2022-09-18T15:25:22.628Z,48.10
2022-09-18T15:27:52.744Z,48.40
2022-09-18T15:30:21.136Z,48.20
2022-09-18T15:32:52.191Z,47.80
2022-09-18T15:35:21.780Z,48.00
2022-09-18T15:37:53.986Z,48.20
2022-09-18T15:40:29.079Z,48.30
2022-09-18T15:42:59.275Z,48.30
2022-09-18T15:45:32.865Z,48.10
2022-09-18T15:51:18.669Z,48.20
2022-09-18T15:54:25.869Z,48.20
2022-09-18T15:56:57.457Z,48.30
2022-09-18T15:59:29.580Z,48.30
2022-09-18T16:01:56.878Z,48.20
2022-09-18T16:04:55.823Z,48.40
2022-09-18T16:08:42.285Z,48.20
2022-09-18T16:10:48.196Z,48.40
2022-09-18T16:13:35.114Z,48.50
2022-09-18T16:16:26.191Z,48.50
2022-09-18T16:18:55.338Z,48.30
2022-09-18T16:21:28.548Z,48.30
2022-09-18T16:23:59.763Z,48.20
2022-09-18T16:26:36.228Z,48.60
2022-09-18T16:29:05.478Z,48.40
2022-09-18T16:31:35.858Z,48.30
2022-09-18T16:34:04.820Z,48.10
2022-09-18T16:36:33.983Z,48.20
2022-09-18T16:39:03.222Z,48.30
2022-09-18T16:41:30.833Z,48.40
2022-09-18T16:43:57.700Z,48.30
2022-09-18T16:46:28.897Z,48.40
2022-09-18T16:48:57.517Z,48.40
2022-09-18T16:51:24.308Z,48.40
2022-09-18T16:53:51.083Z,48.50
2022-09-18T16:56:23.081Z,48.40
2022-09-18T16:58:51.056Z,48.10
2022-09-18T17:01:17.940Z,48.00
2022-09-18T17:03:45.104Z,48.10
2022-09-18T17:06:17.057Z,48.20
2022-09-18T17:08:46.872Z,48.40
2022-09-18T17:11:13.872Z,48.60
2022-09-18T17:13:40.742Z,48.80
2022-09-18T17:16:07.543Z,49.00
2022-09-18T17:18:34.837Z,49.00
2022-09-18T17:21:01.972Z,48.90
2022-09-18T17:23:30.213Z,49.00
2022-09-18T17:26:03.661Z,49.00
2022-09-18T17:28:30.493Z,49.30
2022-09-18T17:30:57.257Z,49.40
2022-09-18T17:33:24.239Z,49.50
2022-09-18T17:35:51.022Z,49.40
2022-09-18T17:38:17.764Z,49.60
2022-09-18T17:40:55.779Z,49.60
2022-09-18T17:43:22.564Z,49.40
2022-09-18T17:45:53.760Z,49.50
2022-09-18T17:48:20.505Z,49.60
2022-09-18T17:50:47.269Z,49.40
2022-09-18T17:53:14.015Z,49.40
2022-09-18T17:55:40.741Z,49.30
2022-09-18T17:58:08.930Z,49.40
2022-09-18T18:00:38.074Z,49.20
2022-09-18T18:03:04.821Z,49.30
2022-09-18T18:05:31.533Z,49.30
2022-09-18T18:07:58.285Z,49.30
2022-09-18T18:10:25.083Z,49.40
2022-09-18T18:12:51.899Z,49.40
2022-09-18T18:15:20.059Z,49.50
2022-09-18T18:17:46.869Z,49.50
2022-09-18T18:20:13.605Z,49.50
2022-09-18T18:22:40.361Z,49.40
2022-09-18T18:25:08.727Z,49.50
2022-09-18T18:27:35.702Z,49.60
2022-09-18T18:30:02.419Z,49.60
2022-09-18T18:32:30.509Z,49.90
2022-09-18T18:34:57.380Z,50.20
2022-09-18T18:37:24.153Z,50.70
2022-09-18T18:39:50.938Z,51.00
2022-09-18T18:42:17.692Z,51.10
2022-09-18T18:44:44.453Z,51.10
2022-09-18T18:47:11.188Z,51.20
2022-09-18T18:49:39.251Z,51.60
2022-09-18T18:52:06.061Z,51.60
2022-09-18T18:54:32.856Z,52.10
2022-09-18T18:56:59.609Z,51.90
2022-09-18T18:59:26.320Z,52.30
2022-09-18T19:01:55.602Z,51.70
2022-09-18T19:04:22.559Z,51.70
2022-09-18T19:06:50.781Z,51.70
2022-09-18T19:09:20.680Z,51.60
2022-09-18T19:11:48.619Z,52.10
2022-09-18T19:14:17.315Z,51.40
2022-09-18T19:16:44.757Z,52.20
2022-09-18T19:19:12.947Z,51.80
2022-09-18T19:21:40.081Z,52.20
2022-09-18T19:24:09.667Z,52.50
2022-09-18T19:26:38.427Z,52.40
2022-09-18T19:29:07.768Z,52.00
2022-09-18T19:31:36.473Z,51.30
2022-09-18T19:34:04.203Z,51.90
2022-09-18T19:36:32.259Z,52.10
2022-09-18T19:39:01.116Z,52.60
2022-09-18T19:41:35.396Z,52.10
2022-09-18T19:44:04.349Z,52.80
2022-09-18T19:46:32.335Z,53.30
2022-09-18T19:48:59.752Z,52.80
2022-09-18T19:51:28.192Z,53.40
2022-09-18T19:53:54.937Z,53.10
2022-09-18T19:56:41.717Z,52.90
2022-09-18T19:59:09.926Z,53.80
2022-09-18T20:01:36.806Z,54.00
2022-09-18T20:04:03.637Z,54.40
2022-09-18T20:06:30.457Z,54.00
2022-09-18T20:08:57.124Z,54.50
2022-09-18T20:11:23.893Z,54.30
2022-09-18T20:13:51.080Z,54.70
2022-09-18T20:16:19.925Z,54.90
2022-09-18T20:18:46.933Z,54.20
2022-09-18T20:21:16.325Z,54.10
2022-09-18T20:23:43.624Z,54.00
2022-09-18T20:26:12.302Z,54.50
2022-09-18T20:28:39.393Z,54.70
2022-09-18T20:31:08.337Z,54.30
2022-09-18T20:33:36.681Z,53.90
2022-09-18T20:36:04.215Z,54.20
2022-09-18T20:38:31.244Z,53.90
2022-09-18T20:41:00.654Z,53.70
2022-09-18T20:43:29.750Z,53.60
2022-09-18T20:46:01.854Z,54.00
2022-09-18T20:48:31.817Z,54.00
2022-09-18T20:51:03.451Z,54.10
2022-09-18T20:53:30.135Z,54.60
2022-09-18T20:55:58.359Z,54.80
2022-09-18T20:58:25.243Z,54.60
2022-09-18T21:00:52.048Z,54.40
2022-09-18T21:03:18.866Z,54.40
2022-09-18T21:05:45.594Z,55.00
2022-09-18T21:08:13.969Z,54.90
2022-09-18T21:10:40.687Z,55.40
2022-09-18T21:13:07.384Z,55.60
2022-09-18T21:15:34.120Z,55.80
2022-09-18T21:18:00.860Z,55.60
2022-09-18T21:20:27.617Z,56.20
2022-09-18T21:22:54.299Z,55.90
2022-09-18T21:25:22.407Z,55.20
2022-09-18T21:27:52.894Z,55.50
2022-09-18T21:30:19.628Z,55.80
2022-09-18T21:32:47.693Z,55.60
2022-09-18T21:35:14.573Z,55.80
2022-09-18T21:37:41.332Z,56.30
2022-09-18T21:40:08.498Z,56.60
2022-09-18T21:42:36.660Z,56.60
2022-09-18T21:45:03.525Z,57.40
2022-09-18T21:47:30.290Z,57.40
2022-09-18T21:49:57.057Z,58.00
2022-09-18T21:52:23.769Z,57.80
2022-09-18T21:54:50.503Z,58.00
2022-09-18T21:57:17.178Z,58.00
2022-09-18T21:59:45.248Z,58.80
2022-09-18T22:02:12.045Z,58.30
2022-09-18T22:04:38.800Z,58.70
2022-09-18T22:07:05.504Z,58.90
2022-09-18T22:09:34.021Z,58.50
2022-09-18T22:12:01.287Z,58.70
2022-09-18T22:14:30.515Z,58.70
2022-09-18T22:16:59.747Z,58.80
2022-09-18T22:19:27.801Z,58.30
2022-09-18T22:21:54.515Z,58.50
2022-09-18T22:24:24.007Z,58.80
2022-09-18T22:26:53.609Z,58.50
2022-09-18T22:29:22.851Z,59.10
2022-09-18T22:31:50.197Z,58.60
2022-09-18T22:34:20.726Z,58.70
2022-09-18T22:36:48.276Z,58.50
2022-09-18T22:39:16.559Z,59.50
2022-09-18T22:41:44.066Z,59.40
2022-09-18T22:44:11.299Z,58.90
2022-09-18T22:46:39.502Z,59.20
2022-09-18T22:49:06.923Z,59.20
2022-09-18T22:51:35.376Z,59.50
2022-09-18T22:54:04.130Z,59.60
2022-09-18T22:56:31.882Z,59.60
2022-09-18T22:58:58.995Z,59.30
2022-09-18T23:01:28.622Z,59.70
2022-09-18T23:03:56.338Z,59.80
2022-09-18T23:06:25.542Z,60.00
2022-09-18T23:08:55.504Z,60.10
2022-09-18T23:11:24.677Z,60.10
2022-09-18T23:13:54.675Z,59.20
2022-09-18T23:16:23.366Z,59.40
2022-09-18T23:18:51.110Z,59.70
2022-09-18T23:21:18.068Z,59.70
2022-09-18T23:23:45.643Z,59.60
2022-09-18T23:26:15.834Z,59.60
2022-09-18T23:28:43.769Z,59.00
2022-09-18T23:31:12.231Z,59.30
2022-09-18T23:33:40.244Z,59.50
2022-09-18T23:36:09.671Z,59.20
2022-09-18T23:38:36.487Z,59.30
2022-09-18T23:41:05.390Z,58.70
2022-09-18T23:43:33.499Z,58.70
2022-09-18T23:46:00.381Z,58.00
2022-09-18T23:48:28.032Z,58.70
2022-09-18T23:50:55.246Z,58.20
2022-09-18T23:53:23.105Z,58.60
2022-09-18T23:55:50.131Z,58.90
2022-09-18T23:58:17.223Z,58.90
